createdAt,value
2019-02-27T00:03:31.696Z,48.20
2019-02-27T00:08:36.715Z,56.13
2019-02-27T00:13:38.875Z,47.10
2019-02-27T00:18:42.706Z,47.97
2019-02-27T00:23:47.973Z,50.17
2019-02-27T00:28:51.207Z,45.97
2019-02-27T00:33:53.231Z,50.33
2019-02-27T00:38:58.019Z,44.67
2019-02-27T00:44:04.238Z,48.70
2019-02-27T00:49:06.252Z,47.37
2019-02-27T00:54:15.959Z,50.50
2019-02-27T00:59:19.434Z,47.40
2019-02-27T01:04:21.671Z,43.27
2019-02-27T01:09:26.083Z,41.70
2019-02-27T01:14:30.720Z,45.87
2019-02-27T01:19:32.984Z,48.23
2019-02-27T01:24:35.166Z,46.93
2019-02-27T01:29:38.893Z,47.47
2019-02-27T01:34:44.223Z,44.67
2019-02-27T01:39:45.157Z,42.23
2019-02-27T01:44:50.179Z,40.90
2019-02-27T01:49:52.228Z,48.63
2019-02-27T01:54:59.642Z,46.33
2019-02-27T02:00:01.717Z,40.37
2019-02-27T02:05:04.203Z,42.73
2019-02-27T02:10:06.460Z,41.90
2019-02-27T02:15:27.145Z,44.63
2019-02-27T02:20:55.337Z,45.50
2019-02-27T02:26:35.050Z,44.07
2019-02-27T02:32:04.564Z,41.23
2019-02-27T02:37:45.192Z,48.13
2019-02-27T02:43:10.352Z,42.87
2019-02-27T02:49:07.876Z,52.13
2019-02-27T02:54:42.151Z,48.90
2019-02-27T02:59:59.416Z,50.07
2019-02-27T03:05:29.118Z,50.40
2019-02-27T03:10:42.783Z,51.37
2019-02-27T03:16:13.682Z,50.47
2019-02-27T03:22:03.239Z,49.13
2019-02-27T03:27:33.629Z,46.07
2019-02-27T03:32:47.472Z,44.07
2019-02-27T03:38:29.955Z,48.43
2019-02-27T03:44:01.288Z,49.23
2019-02-27T03:49:48.941Z,44.53
2019-02-27T03:55:43.878Z,47.30
2019-02-27T04:01:21.574Z,49.53
2019-02-27T04:07:06.192Z,48.27
2019-02-27T04:12:08.320Z,46.13
2019-02-27T04:17:11.568Z,45.83
2019-02-27T04:22:13.592Z,48.93
2019-02-27T04:27:21.257Z,51.47
2019-02-27T04:32:23.499Z,52.20
2019-02-27T04:37:25.512Z,49.50
2019-02-27T04:42:27.635Z,45.40
2019-02-27T04:47:36.438Z,48.67
2019-02-27T04:52:38.553Z,50.47
2019-02-27T04:57:40.566Z,47.17
2019-02-27T05:02:42.634Z,50.23
2019-02-27T05:07:46.655Z,48.83
2019-02-27T05:12:49.252Z,51.80
2019-02-27T05:17:55.620Z,57.13
2019-02-27T05:23:00.483Z,52.57
2019-02-27T05:28:03.441Z,50.30
2019-02-27T05:33:05.563Z,50.50
2019-02-27T05:38:07.655Z,49.37
2019-02-27T05:43:13.180Z,49.23
2019-02-27T05:48:13.880Z,51.63
2019-02-27T05:53:16.281Z,55.37
2019-02-27T05:58:18.347Z,59.53
2019-02-27T06:03:20.383Z,51.53
2019-02-27T06:08:25.530Z,53.40
2019-02-27T06:13:27.842Z,51.30
2019-02-27T06:18:29.974Z,57.03
2019-02-27T06:23:35.408Z,56.80
2019-02-27T06:28:37.438Z,50.23
2019-02-27T06:33:44.981Z,55.83
2019-02-27T06:38:46.370Z,57.10
2019-02-27T06:43:48.930Z,61.53
2019-02-27T06:48:56.510Z,52.07
2019-02-27T06:54:00.228Z,67.63
2019-02-27T06:59:02.268Z,54.33
2019-02-27T07:04:09.249Z,51.90
2019-02-27T07:09:12.197Z,52.03
2019-02-27T07:14:14.361Z,55.67
2019-02-27T07:19:16.450Z,51.73
2019-02-27T07:24:18.676Z,63.53
2019-02-27T07:29:22.054Z,53.47
2019-02-27T07:34:24.870Z,57.77
2019-02-27T07:39:32.581Z,54.90
2019-02-27T07:44:35.886Z,55.37
2019-02-27T07:49:37.971Z,52.10
2019-02-27T07:54:44.390Z,55.67
2019-02-27T07:59:46.684Z,62.40
2019-02-27T08:04:48.987Z,49.10
2019-02-27T08:09:50.941Z,48.27
2019-02-27T08:14:54.717Z,54.27
2019-02-27T08:19:58.663Z,53.17
2019-02-27T08:25:02.677Z,49.03
2019-02-27T08:30:07.016Z,52.37
2019-02-27T08:35:11.769Z,58.93
2019-02-27T08:40:15.827Z,51.33
2019-02-27T08:45:20.002Z,54.80
2019-02-27T08:50:24.120Z,50.63
2019-02-27T08:55:27.622Z,48.70
2019-02-27T09:00:31.951Z,47.63
2019-02-27T09:05:34.268Z,57.13
2019-02-27T09:10:38.780Z,47.57
2019-02-27T09:15:41.730Z,55.77
2019-02-27T09:20:53.045Z,47.23
2019-02-27T09:25:57.164Z,46.40
2019-02-27T09:31:03.188Z,44.30
2019-02-27T09:36:05.157Z,48.37
2019-02-27T09:41:12.184Z,46.70
2019-02-27T09:46:19.234Z,43.97
2019-02-27T09:51:22.170Z,46.50
2019-02-27T09:56:26.085Z,46.13
2019-02-27T10:01:29.250Z,42.03
2019-02-27T10:06:32.927Z,39.00
2019-02-27T10:11:37.461Z,39.27
2019-02-27T10:16:39.798Z,38.40
2019-02-27T10:21:44.559Z,34.77
2019-02-27T10:26:46.243Z,41.00
2019-02-27T10:31:48.269Z,34.73
2019-02-27T10:36:52.569Z,36.97
2019-02-27T10:41:56.379Z,53.10
2019-02-27T10:47:00.073Z,37.63
2019-02-27T10:52:02.421Z,33.50
2019-02-27T10:57:05.964Z,36.20
2019-02-27T11:02:12.403Z,34.53
2019-02-27T11:07:15.988Z,37.10
2019-02-27T11:12:18.453Z,42.57
2019-02-27T11:17:20.651Z,39.47
2019-02-27T11:22:25.537Z,29.53
2019-02-27T11:27:31.575Z,36.17
2019-02-27T11:32:33.704Z,29.83
2019-02-27T11:37:39.014Z,32.57
2019-02-27T11:42:41.068Z,33.90
2019-02-27T11:47:47.998Z,34.87
2019-02-27T11:52:51.289Z,31.17
2019-02-27T11:57:53.389Z,29.27
2019-02-27T12:02:58.217Z,31.73
2019-02-27T12:08:04.975Z,27.07
2019-02-27T12:13:11.904Z,26.00
2019-02-27T12:18:13.939Z,24.40
2019-02-27T12:23:18.136Z,28.83
2019-02-27T12:28:20.208Z,29.63
2019-02-27T12:33:29.200Z,30.53
2019-02-27T12:38:28.896Z,25.17
2019-02-27T12:43:35.052Z,26.73
2019-02-27T12:48:37.167Z,27.27
2019-02-27T12:53:39.231Z,34.70
2019-02-27T12:58:44.379Z,32.90
2019-02-27T13:03:46.476Z,31.93
2019-02-27T13:08:52.602Z,34.83
2019-02-27T13:13:57.241Z,33.53
2019-02-27T13:18:59.090Z,34.20
2019-02-27T13:24:01.151Z,30.53
2019-02-27T13:29:03.185Z,37.17
2019-02-27T13:34:07.795Z,40.83
2019-02-27T13:39:12.363Z,32.87
2019-02-27T13:44:18.823Z,35.30
2019-02-27T13:49:27.901Z,33.93
2019-02-27T13:54:34.883Z,40.97
2019-02-27T13:59:36.908Z,33.37
2019-02-27T14:04:42.060Z,32.53
2019-02-27T14:09:45.921Z,32.73
2019-02-27T14:14:52.142Z,32.30
2019-02-27T14:19:52.011Z,35.57
2019-02-27T14:24:54.835Z,39.10
2019-02-27T14:29:57.965Z,34.40
2019-02-27T14:35:01.547Z,34.80
2019-02-27T14:40:05.495Z,35.57
2019-02-27T14:45:11.215Z,39.97
2019-02-27T14:50:16.890Z,39.83
2019-02-27T14:55:19.284Z,37.00
2019-02-27T15:00:24.648Z,35.20
2019-02-27T15:05:27.275Z,39.23
2019-02-27T15:10:33.643Z,38.37
2019-02-27T15:15:35.812Z,37.47
2019-02-27T15:20:41.092Z,41.13
2019-02-27T15:25:46.626Z,43.23
2019-02-27T15:30:50.671Z,49.50
2019-02-27T15:35:56.338Z,45.77
2019-02-27T15:41:03.217Z,43.60
2019-02-27T15:46:05.801Z,51.90
2019-02-27T15:51:07.890Z,48.90
2019-02-27T15:56:13.579Z,44.30
2019-02-27T16:01:18.439Z,42.50
2019-02-27T16:06:25.550Z,47.83
2019-02-27T16:11:27.694Z,47.23
2019-02-27T16:16:32.577Z,46.07
2019-02-27T16:21:34.594Z,50.80
2019-02-27T16:26:39.533Z,46.40
2019-02-27T16:31:42.757Z,56.70
2019-02-27T16:36:46.907Z,48.27
2019-02-27T16:41:50.773Z,53.30
2019-02-27T16:46:54.566Z,51.00
2019-02-27T16:52:00.288Z,52.83
2019-02-27T16:57:08.217Z,62.67
2019-02-27T17:02:12.691Z,57.17
2019-02-27T17:07:20.012Z,51.93
2019-02-27T17:12:22.889Z,50.37
2019-02-27T17:17:24.930Z,52.97
2019-02-27T17:22:27.053Z,53.57
2019-02-27T17:27:32.807Z,54.90
2019-02-27T17:32:39.032Z,54.40
2019-02-27T17:37:41.102Z,59.13
2019-02-27T17:42:43.618Z,58.83
2019-02-27T17:47:45.789Z,56.90
2019-02-27T17:52:49.124Z,60.13
2019-02-27T17:57:51.828Z,58.87
2019-02-27T18:02:56.286Z,63.47
2019-02-27T18:08:03.375Z,60.23
2019-02-27T18:13:05.351Z,63.07
2019-02-27T18:18:10.661Z,58.70
2019-02-27T18:23:21.989Z,57.67
2019-02-27T18:28:33.071Z,64.60
2019-02-27T18:33:35.192Z,57.07
2019-02-27T18:38:37.278Z,65.73
2019-02-27T18:43:39.313Z,60.63
2019-02-27T18:48:43.809Z,68.80
2019-02-27T18:53:48.336Z,61.27
2019-02-27T18:58:55.590Z,69.47
2019-02-27T19:04:01.291Z,73.60
2019-02-27T19:09:05.491Z,66.53
2019-02-27T19:14:07.606Z,69.57
2019-02-27T19:19:13.782Z,67.20
2019-02-27T19:24:16.068Z,69.20
2019-02-27T19:29:21.065Z,67.03
2019-02-27T19:34:23.406Z,79.50
2019-02-27T19:39:28.956Z,67.07
2019-02-27T19:44:32.088Z,71.70
2019-02-27T19:49:37.336Z,81.83
2019-02-27T19:54:39.375Z,78.13
2019-02-27T19:59:59.694Z,83.23
2019-02-27T20:05:11.120Z,76.70
2019-02-27T20:10:14.016Z,81.93
2019-02-27T20:15:18.005Z,76.13
2019-02-27T20:20:25.075Z,78.77
2019-02-27T20:25:30.523Z,82.90
2019-02-27T20:30:32.519Z,83.80
2019-02-27T20:35:34.820Z,83.17
2019-02-27T20:40:39.243Z,81.07
2019-02-27T20:45:42.911Z,85.40
2019-02-27T20:50:51.446Z,94.17
2019-02-27T20:55:53.584Z,87.70
2019-02-27T21:00:55.788Z,86.73
2019-02-27T21:05:57.998Z,88.10
2019-02-27T21:11:01.237Z,86.27
2019-02-27T21:16:03.945Z,104.77
2019-02-27T21:21:08.107Z,97.53
2019-02-27T21:26:11.245Z,93.00
2019-02-27T21:31:15.213Z,92.70
2019-02-27T21:36:17.643Z,96.03
2019-02-27T21:41:20.600Z,94.17
2019-02-27T21:46:22.864Z,98.30
2019-02-27T21:51:24.941Z,95.97
2019-02-27T21:56:27.081Z,95.07
2019-02-27T22:01:31.007Z,89.60
2019-02-27T22:06:36.844Z,93.90
2019-02-27T22:11:39.256Z,101.13
2019-02-27T22:16:42.730Z,101.77
2019-02-27T22:21:50.969Z,102.40
2019-02-27T22:26:53.095Z,97.93
2019-02-27T22:31:57.556Z,97.00
2019-02-27T22:37:01.641Z,89.53
2019-02-27T22:42:05.852Z,98.63
2019-02-27T22:47:08.044Z,93.23
2019-02-27T22:52:13.109Z,91.13
2019-02-27T22:57:15.407Z,92.37
2019-02-27T23:02:18.166Z,87.80
2019-02-27T23:07:24.583Z,87.70
2019-02-27T23:12:26.664Z,101.60
2019-02-27T23:17:31.810Z,95.73
2019-02-27T23:22:35.231Z,92.43
2019-02-27T23:27:37.372Z,92.23
2019-02-27T23:32:39.684Z,99.50
2019-02-27T23:37:44.694Z,90.83
2019-02-27T23:42:47.996Z,94.93
2019-02-27T23:47:50.040Z,98.43
2019-02-27T23:52:53.240Z,93.33
2019-02-27T23:57:59.038Z,93.90
